»·PEaware :: N968LT KCRQ-KCRQ

N968LT :: KCRQ-KCRQ

FLIGHT INFORMATION

Flight Status: Arrived
Operator: Privately registered:
United States
More flights under this callsign
Pilot: Danny R. (17997)
Aircraft: CESSNA 172 SKYHAWK
(C172)
More flights by this aircraft type
Origin: KCRQ McClellan-Palomar
United States
Destination: KCRQ McClellan-Palomar
United States
More flights between these airports :: More routes between these airports
Route: +
File this flight plan on PilotEdge
Remarks:
Altitude:
(Current/Filed)
0ft
Speed:
(Current/Filed)
0kts
Departed: 27-Oct-18 10:31 AM
Arrived: 27-Oct-18 11:19 AM
Distance/Time
Traveled:
0nm/0:48
Distance/Time
To Go:
Arrived

Flight Plot

Page will automatically refresh every two minutes.


Map Options




Map Legend


Flown Route
Filed Route
Departure Airport
Arrival Airport
Navaid (VOR, NDB)
Fix

Horizontal Profiles

Position Reports

Time Latitude Longitude Heading Altitude Ground
Speed
27-Oct-18 10:32 32.807860 -115.752961 259 5308ft 81kts
27-Oct-18 10:33 32.803765 -115.779808 259 5814ft 83kts
27-Oct-18 10:34 32.799653 -115.806988 259 6291ft 84kts
27-Oct-18 10:35 32.795228 -115.836253 260 6548ft 103kts
27-Oct-18 10:36 32.788961 -115.873164 259 6572ft 117kts
27-Oct-18 10:37 32.787897 -115.911516 274 6563ft 116kts
27-Oct-18 10:38 32.792076 -115.949524 289 6560ft 116kts
27-Oct-18 10:39 32.802891 -115.985683 290 6556ft 116kts
27-Oct-18 10:40 32.812386 -116.021430 307 6553ft 115kts
27-Oct-18 10:41 32.830936 -116.052688 305 6550ft 115kts
27-Oct-18 10:42 32.849247 -116.084057 305 6549ft 115kts
27-Oct-18 10:43 32.867617 -116.115546 305 6545ft 115kts
27-Oct-18 10:44 32.892070 -116.137360 332 6541ft 115kts
27-Oct-18 10:45 32.907111 -116.168542 282 6549ft 115kts
27-Oct-18 10:46 32.913632 -116.206041 282 6553ft 115kts
27-Oct-18 10:47 32.920181 -116.243672 282 6555ft 116kts
27-Oct-18 10:48 32.926773 -116.281557 282 6557ft 117kts
27-Oct-18 10:49 32.933872 -116.319657 295 6553ft 119kts
27-Oct-18 10:50 32.952129 -116.343856 313 6536ft 118kts
27-Oct-18 10:52 32.977067 -116.375870 313 6544ft 117kts
27-Oct-18 10:52 32.995685 -116.399764 313 6543ft 118kts
27-Oct-18 10:53 33.018120 -116.428574 313 6543ft 118kts
27-Oct-18 10:54 33.040642 -116.457222 320 6541ft 117kts
27-Oct-18 10:55 33.065409 -116.481281 312 6538ft 115kts
27-Oct-18 10:57 33.089561 -116.515225 310 6537ft 115kts
27-Oct-18 10:57 33.106117 -116.538725 310 6563ft 113kts
27-Oct-18 10:59 33.130060 -116.572627 310 6568ft 114kts
27-Oct-18 10:59 33.139927 -116.600462 268 6550ft 116kts
27-Oct-18 11:00 33.138724 -116.638996 271 6545ft 116kts
27-Oct-18 11:01 33.138331 -116.675568 269 6587ft 114kts
27-Oct-18 11:02 33.137764 -116.713124 269 6587ft 116kts
27-Oct-18 11:03 33.137139 -116.751633 269 6572ft 117kts
27-Oct-18 11:04 33.136522 -116.791259 269 6404ft 120kts
27-Oct-18 11:05 33.136112 -116.831383 277 6240ft 121kts
27-Oct-18 11:06 33.142204 -116.870911 281 6083ft 121kts
27-Oct-18 11:07 33.148506 -116.910343 281 5909ft 122kts
27-Oct-18 11:08 33.155033 -116.950295 281 5619ft 122kts
27-Oct-18 11:09 33.151608 -116.990042 255 5273ft 123kts
27-Oct-18 11:10 33.142854 -117.029172 255 4918ft 120kts
27-Oct-18 11:11 33.137179 -117.068808 270 4433ft 125kts
27-Oct-18 11:12 33.137511 -117.109457 270 3730ft 117kts
27-Oct-18 11:13 33.137863 -117.147559 270 2819ft 110kts
27-Oct-18 11:14 33.141424 -117.181051 280 2023ft 96kts
27-Oct-18 11:15 33.139670 -117.212802 257 1397ft 105kts
27-Oct-18 11:16 33.134350 -117.243719 258 856ft 83kts
27-Oct-18 11:17 33.119500 -117.243792 105 1014ft 76kts
27-Oct-18 11:18 33.125979 -117.219405 4 1416ft 81kts
27-Oct-18 11:19 33.136238 -117.237439 256 1165ft 88kts
27-Oct-18 11:20 33.130992 -117.263938 257 486ft 77kts
27-Oct-18 11:21 33.128752 -117.279847 304 335ft 10kts
27-Oct-18 11:22 33.129102 -117.280942 176 335ft 0kts
27-Oct-18 11:23 33.129099 -117.280942 175 335ft 0kts
27-Oct-18 11:24 33.129099 -117.280942 175 335ft 0kts
27-Oct-18 11:25 33.129099 -117.280942 175 335ft 0kts
27-Oct-18 11:26 33.129099 -117.280942 175 335ft 0kts
27-Oct-18 11:27 33.129099 -117.280942 175 335ft 0kts
27-Oct-18 11:28 33.129099 -117.280942 175 335ft 0kts
27-Oct-18 11:29 33.129099 -117.280942 175 335ft 0kts
27-Oct-18 11:30 33.129099 -117.280942 175 335ft 0kts
27-Oct-18 11:31 33.129099 -117.280942 175 335ft 0kts
27-Oct-18 11:32 33.129099 -117.280942 175 335ft 0kts
27-Oct-18 11:33 33.129099 -117.280942 175 335ft 0kts
27-Oct-18 11:34 33.129084 -117.280940 167 335ft 0kts
27-Oct-18 11:35 33.129084 -117.280940 167 335ft 0kts
27-Oct-18 11:36 33.129084 -117.280940 167 335ft 0kts

Navigation Log

Ident Type
1. KCRQ Airport
2. KCRQ Airport